Time;durP1;ratioP1;P1;durP2;ratioP2;P2;SDS_P1;SDS_P2;PMS_P1;PMS_P2;Temp;Humidity;BMP_temperature;BMP_pressure;BME280_temperature;BME280_humidity;BME280_pressure;Samples;Min_cycle;Max_cycle;Signal;HPM_P1;HPM_P2
2023/07/09 00:01:57;;;;;;;5.77;3.80;;;19.40;1.00;;;;;;4991323;28;20504;-60
2023/07/09 00:04:23;;;;;;;4.93;3.53;;;19.40;1.00;;;;;;4990971;28;20450;-60
2023/07/09 00:06:49;;;;;;;5.30;3.80;;;19.40;1.00;;;;;;4991269;28;20201;-60
2023/07/09 00:09:17;;;;;;;4.17;3.77;;;19.30;1.00;;;;;;4991464;28;20426;-61
2023/07/09 00:11:43;;;;;;;13.37;3.90;;;19.20;1.00;;;;;;4991121;28;20949;-60
2023/07/09 00:14:14;;;;;;;6.63;4.17;;;19.20;1.00;;;;;;4991317;28;20407;-60
2023/07/09 00:16:41;;;;;;;4.27;3.80;;;19.20;1.00;;;;;;4991521;28;20416;-61
2023/07/09 00:19:17;;;;;;;6.00;3.97;;;19.20;1.00;;;;;;4991676;28;20413;-59
2023/07/09 00:21:45;;;;;;;6.10;4.07;;;19.20;1.00;;;;;;4991116;28;20523;-58
2023/07/09 00:24:12;;;;;;;7.70;3.90;;;19.20;1.00;;;;;;4991118;28;20410;-61
2023/07/09 00:26:40;;;;;;;6.70;3.87;;;19.20;1.00;;;;;;4991285;28;20417;-62
2023/07/09 00:29:09;;;;;;;4.43;3.87;;;19.20;1.00;;;;;;4991367;28;20417;-61
2023/07/09 00:31:38;;;;;;;9.03;4.03;;;19.20;1.00;;;;;;4991248;28;20873;-61
2023/07/09 00:34:04;;;;;;;3.93;3.53;;;19.20;1.00;;;;;;4991134;28;20801;-61
2023/07/09 00:36:31;;;;;;;7.20;4.30;;;19.20;1.00;;;;;;4991186;28;20430;-62
2023/07/09 00:39:04;;;;;;;6.30;3.90;;;19.10;1.00;;;;;;4991096;28;20410;-61
2023/07/09 00:41:36;;;;;;;6.87;3.90;;;19.10;1.00;;;;;;4990904;28;20798;-61
2023/07/09 00:44:20;;;;;;;4.30;3.80;;;19.00;1.00;;;;;;4991089;28;20416;-61
2023/07/09 00:46:48;;;;;;;7.53;4.60;;;19.00;1.00;;;;;;4990525;28;20513;-61
2023/07/09 00:49:26;;;;;;;6.40;3.70;;;19.00;1.00;;;;;;4990864;28;20926;-62
2023/07/09 00:51:52;;;;;;;4.43;3.90;;;19.00;1.00;;;;;;4991190;28;20410;-61
2023/07/09 00:54:22;;;;;;;11.43;4.30;;;18.90;1.00;;;;;;4990743;28;20465;-62
2023/07/09 00:56:51;;;;;;;4.70;3.57;;;18.90;1.00;;;;;;4990559;28;20978;-61
2023/07/09 00:59:21;;;;;;;4.00;3.60;;;18.90;1.00;;;;;;4991024;28;20420;-60
2023/07/09 01:01:50;;;;;;;6.60;3.70;;;18.80;1.00;;;;;;4990832;28;20445;-60
2023/07/09 01:04:19;;;;;;;8.60;3.10;;;18.80;1.00;;;;;;4990356;28;21096;-60
2023/07/09 01:06:49;;;;;;;5.67;3.90;;;18.70;1.00;;;;;;4992834;28;20482;-61
2023/07/09 01:09:16;;;;;;;7.63;3.80;;;18.60;1.00;;;;;;4994252;28;20496;-60
2023/07/09 01:11:42;;;;;;;7.83;4.00;;;18.60;1.00;;;;;;4994222;28;20424;-60
2023/07/09 01:14:12;;;;;;;7.60;4.20;;;18.70;1.00;;;;;;4993593;28;20419;-61
2023/07/09 01:16:42;;;;;;;5.77;3.80;;;18.70;1.00;;;;;;4993842;28;20732;-61
2023/07/09 01:19:07;;;;;;;3.60;3.30;;;18.70;1.00;;;;;;4993685;28;20499;-61
2023/07/09 01:21:33;;;;;;;5.87;4.20;;;18.70;1.00;;;;;;4993844;28;20871;-60
2023/07/09 01:24:13;;;;;;;3.80;3.50;;;18.60;1.00;;;;;;4994253;28;20230;-62
2023/07/09 01:26:39;;;;;;;6.30;4.17;;;18.60;1.00;;;;;;4993629;28;20182;-60
2023/07/09 01:29:06;;;;;;;5.43;3.70;;;18.50;1.00;;;;;;4993911;28;20462;-62
2023/07/09 01:31:32;;;;;;;4.57;3.60;;;18.60;1.00;;;;;;4993851;28;20468;-62
2023/07/09 01:33:58;;;;;;;6.07;3.97;;;18.60;1.00;;;;;;4994055;28;20499;-61
2023/07/09 01:36:24;;;;;;;6.63;3.83;;;18.60;1.00;;;;;;4993709;28;20425;-61
2023/07/09 01:38:51;;;;;;;5.00;3.77;;;18.60;1.00;;;;;;4993552;28;20431;-61
2023/07/09 01:41:19;;;;;;;4.90;3.60;;;18.60;1.00;;;;;;4993477;28;20467;-61
2023/07/09 01:43:46;;;;;;;6.53;3.83;;;18.50;1.00;;;;;;4993661;28;20432;-62
2023/07/09 01:46:12;;;;;;;6.10;3.83;;;18.50;1.00;;;;;;4993493;28;20427;-61
2023/07/09 01:48:41;;;;;;;6.93;3.63;;;18.50;1.00;;;;;;4993481;28;20419;-61
2023/07/09 01:51:13;;;;;;;7.50;3.70;;;18.50;1.00;;;;;;4993438;28;20436;-61
2023/07/09 01:53:40;;;;;;;4.27;3.87;;;18.50;1.00;;;;;;4993271;28;20892;-61
2023/07/09 01:56:10;;;;;;;5.57;3.70;;;18.40;1.00;;;;;;4993589;28;20804;-61
2023/07/09 01:58:36;;;;;;;6.00;3.90;;;18.30;1.00;;;;;;4993088;28;20425;-62
2023/07/09 02:01:02;;;;;;;5.70;3.90;;;18.20;1.00;;;;;;4993268;28;20580;-60
2023/07/09 02:03:28;;;;;;;4.30;3.93;;;18.30;1.00;;;;;;4993443;28;20310;-62
2023/07/09 02:05:54;;;;;;;5.40;3.90;;;18.30;1.00;;;;;;4993055;28;20528;-62
2023/07/09 02:08:20;;;;;;;6.63;3.93;;;18.30;1.00;;;;;;4993221;28;20426;-62
2023/07/09 02:10:48;;;;;;;5.77;4.03;;;18.20;1.00;;;;;;4992967;28;20420;-61
2023/07/09 02:13:14;;;;;;;11.90;4.07;;;18.20;1.00;;;;;;4993171;28;20203;-61
2023/07/09 02:15:43;;;;;;;4.87;3.80;;;18.20;1.00;;;;;;4992927;28;20421;-61
2023/07/09 02:18:09;;;;;;;11.60;3.60;;;18.10;1.00;;;;;;4992772;28;20242;-62
2023/07/09 02:20:35;;;;;;;4.77;3.93;;;18.10;1.00;;;;;;4992584;28;20528;-62
2023/07/09 02:23:01;;;;;;;6.90;4.40;;;18.10;1.00;;;;;;4993051;28;20424;-62
2023/07/09 02:25:27;;;;;;;4.20;3.80;;;18.10;1.00;;;;;;4992586;28;20689;-61
2023/07/09 02:27:52;;;;;;;10.20;6.70;;;18.00;1.00;;;;;;4993123;28;20415;-61
2023/07/09 02:30:18;;;;;;;9.80;6.70;;;18.10;1.00;;;;;;4992609;28;20773;-61
2023/07/09 02:32:44;;;;;;;19.90;15.10;;;18.00;1.00;;;;;;4992643;28;20176;-61
2023/07/09 02:35:09;;;;;;;7.10;4.60;;;18.00;1.00;;;;;;4992654;28;20229;-61
2023/07/09 02:37:35;;;;;;;5.97;3.80;;;17.90;1.00;;;;;;4992838;28;20188;-61
2023/07/09 02:40:03;;;;;;;6.93;3.70;;;17.90;1.00;;;;;;4992756;28;20188;-62
2023/07/09 02:48:16;;;;;;;7.90;4.50;;;17.90;1.00;;;;;;4992432;28;20428;-61
2023/07/09 02:50:42;;;;;;;10.50;4.10;;;17.90;1.00;;;;;;4992249;28;20650;-61
2023/07/09 02:53:07;;;;;;;5.93;3.77;;;17.90;1.00;;;;;;4992014;28;20192;-62
2023/07/09 02:55:34;;;;;;;6.73;3.60;;;17.90;1.00;;;;;;4992064;28;20238;-62
2023/07/09 02:57:59;;;;;;;7.93;3.93;;;17.80;1.00;;;;;;4992068;28;20192;-61
2023/07/09 03:00:25;;;;;;;4.40;3.80;;;17.80;1.00;;;;;;4992816;28;20482;-63
2023/07/09 03:02:51;;;;;;;8.77;3.60;;;17.70;1.00;;;;;;4992397;28;20264;-61
2023/07/09 03:05:16;;;;;;;5.00;3.70;;;17.70;1.00;;;;;;4992208;28;20696;-62
2023/07/09 03:07:42;;;;;;;7.13;4.10;;;17.60;1.00;;;;;;4992177;28;20180;-60
2023/07/09 03:10:08;;;;;;;5.27;4.07;;;17.60;1.00;;;;;;4992246;28;20211;-62
2023/07/09 03:12:33;;;;;;;6.47;4.17;;;17.60;1.00;;;;;;4992433;28;20640;-61
2023/07/09 03:14:59;;;;;;;5.07;3.90;;;17.60;1.00;;;;;;4991835;28;20542;-62
2023/07/09 03:17:24;;;;;;;5.63;3.90;;;17.70;1.00;;;;;;4991970;28;20210;-62
2023/07/09 03:19:50;;;;;;;4.93;3.90;;;17.70;1.00;;;;;;4991947;28;20593;-63
2023/07/09 03:22:16;;;;;;;5.20;3.80;;;17.70;1.00;;;;;;4992250;28;20216;-61
2023/07/09 03:24:42;;;;;;;5.43;3.60;;;17.70;1.00;;;;;;4992264;28;20196;-60
2023/07/09 03:27:08;;;;;;;5.00;4.10;;;17.70;1.00;;;;;;4991936;28;20803;-63
2023/07/09 03:29:34;;;;;;;4.50;3.90;;;17.70;1.00;;;;;;4991097;28;20195;-62
2023/07/09 03:32:00;;;;;;;4.07;3.67;;;17.70;1.00;;;;;;4992268;28;20420;-61
2023/07/09 03:34:25;;;;;;;5.50;4.30;;;17.70;1.00;;;;;;4991655;28;20253;-59
2023/07/09 03:36:51;;;;;;;5.30;4.10;;;17.70;1.00;;;;;;4991601;28;20176;-62
2023/07/09 03:39:17;;;;;;;5.60;4.00;;;17.70;1.00;;;;;;4991522;28;20191;-62
2023/07/09 03:41:42;;;;;;;6.40;3.70;;;17.70;1.00;;;;;;4991819;28;20216;-62
2023/07/09 03:44:08;;;;;;;7.87;4.33;;;17.80;1.00;;;;;;4991935;28;20553;-60
2023/07/09 03:46:33;;;;;;;7.27;3.90;;;17.70;1.00;;;;;;4991772;28;20236;-62
2023/07/09 03:49:00;;;;;;;7.47;3.90;;;17.70;1.00;;;;;;4990409;28;20194;-62
2023/07/09 03:51:25;;;;;;;4.07;3.70;;;17.60;1.00;;;;;;4991293;28;20196;-61
2023/07/09 03:53:51;;;;;;;7.40;4.27;;;17.60;1.00;;;;;;4991386;28;20478;-61
2023/07/09 03:56:16;;;;;;;7.13;4.47;;;17.60;1.00;;;;;;4991220;28;20186;-62
2023/07/09 03:58:42;;;;;;;46.00;5.83;;;17.60;1.00;;;;;;4991587;28;20181;-61
2023/07/09 04:01:08;;;;;;;4.13;3.73;;;17.70;1.00;;;;;;4991547;28;20238;-61
2023/07/09 04:03:33;;;;;;;6.30;3.80;;;17.70;1.00;;;;;;4991239;28;20192;-61
2023/07/09 04:05:59;;;;;;;4.30;3.90;;;17.70;1.00;;;;;;4991699;28;20208;-61
2023/07/09 04:08:25;;;;;;;5.30;3.90;;;17.70;1.00;;;;;;4991248;28;20660;-61
2023/07/09 04:10:55;;;;;;;3.90;3.50;;;17.70;1.00;;;;;;4991161;28;20254;-62
2023/07/09 04:13:20;;;;;;;5.17;4.50;;;17.70;1.00;;;;;;4991381;28;20411;-62
2023/07/09 04:15:46;;;;;;;8.03;4.00;;;17.70;1.00;;;;;;4991189;28;20528;-61
2023/07/09 04:18:12;;;;;;;4.27;3.87;;;17.80;1.00;;;;;;4990884;28;20195;-61
2023/07/09 04:20:37;;;;;;;4.63;4.10;;;17.80;1.00;;;;;;4990909;28;20483;-62
2023/07/09 04:23:04;;;;;;;8.80;4.40;;;17.80;1.00;;;;;;4991400;28;20234;-61
2023/07/09 04:25:29;;;;;;;5.70;4.53;;;17.70;1.00;;;;;;4991332;28;20216;-63
2023/07/09 04:27:55;;;;;;;4.97;4.10;;;17.70;1.00;;;;;;4990932;28;20458;-63
2023/07/09 04:30:21;;;;;;;6.67;4.57;;;17.70;1.00;;;;;;4991130;28;20275;-57
2023/07/09 04:32:47;;;;;;;10.03;4.17;;;17.80;1.00;;;;;;4990957;28;20481;-61
2023/07/09 04:35:14;;;;;;;4.70;3.70;;;17.70;1.00;;;;;;4991276;28;20181;-61
2023/07/09 04:37:41;;;;;;;5.70;3.87;;;17.70;1.00;;;;;;4991136;28;20217;-62
2023/07/09 04:40:10;;;;;;;4.63;3.30;;;17.70;1.00;;;;;;4992461;28;20469;-61
2023/07/09 04:42:37;;;;;;;4.70;3.97;;;17.70;1.00;;;;;;4994801;28;20465;-60
2023/07/09 04:45:03;;;;;;;5.03;3.97;;;17.80;1.00;;;;;;4994851;28;20433;-61
2023/07/09 04:47:29;;;;;;;4.83;3.70;;;18.00;1.00;;;;;;4994568;28;20753;-60
2023/07/09 04:49:54;;;;;;;4.73;4.27;;;18.10;1.00;;;;;;4994074;28;20415;-61
2023/07/09 04:52:21;;;;;;;4.00;3.50;;;18.30;1.00;;;;;;4994644;28;20185;-60
2023/07/09 04:54:47;;;;;;;5.30;3.93;;;18.50;1.00;;;;;;4993884;28;20649;-61
2023/07/09 04:57:13;;;;;;;5.33;3.60;;;18.60;1.00;;;;;;4994320;28;20420;-61
2023/07/09 04:59:38;;;;;;;5.30;3.80;;;18.80;1.00;;;;;;4994519;28;20232;-62
2023/07/09 05:02:04;;;;;;;3.90;3.40;;;18.80;1.00;;;;;;4994319;28;20239;-60
2023/07/09 05:04:31;;;;;;;5.10;4.33;;;19.00;1.00;;;;;;4994427;28;20235;-57
2023/07/09 05:06:57;;;;;;;6.30;4.00;;;19.10;1.00;;;;;;4993823;28;20960;-61
2023/07/09 05:09:23;;;;;;;15.60;4.50;;;19.20;1.00;;;;;;4993624;28;20912;-60
2023/07/09 05:11:50;;;;;;;6.63;4.10;;;19.40;1.00;;;;;;4993830;28;20429;-61
2023/07/09 05:14:16;;;;;;;8.40;3.93;;;19.50;1.00;;;;;;4994037;28;20190;-61
2023/07/09 05:16:43;;;;;;;5.70;3.37;;;19.70;99.90;;;;;;4993746;28;20420;-62
2023/07/09 05:19:08;;;;;;;6.03;3.80;;;19.80;99.90;;;;;;4994041;28;20215;-61
2023/07/09 05:21:34;;;;;;;5.70;3.77;;;19.90;99.90;;;;;;4993726;28;20552;-61
2023/07/09 05:24:00;;;;;;;6.07;3.60;;;20.00;99.90;;;;;;4994075;28;20647;-61
2023/07/09 05:26:25;;;;;;;4.43;4.03;;;20.10;99.90;;;;;;4993511;28;20514;-61
2023/07/09 05:28:51;;;;;;;5.70;3.73;;;20.30;99.90;;;;;;4993936;28;20328;-61
2023/07/09 05:31:17;;;;;;;4.80;4.17;;;20.40;99.90;;;;;;4993517;28;20173;-61
2023/07/09 05:33:42;;;;;;;6.47;4.57;;;20.50;99.90;;;;;;4993483;28;20205;-61
2023/07/09 05:36:15;;;;;;;4.33;3.50;;;20.60;99.90;;;;;;4993770;28;20193;-61
2023/07/09 05:38:45;;;;;;;4.13;3.67;;;20.80;99.90;;;;;;4993535;28;20178;-60
2023/07/09 05:41:11;;;;;;;5.43;4.27;;;20.80;99.90;;;;;;4993705;28;20505;-61
2023/07/09 05:43:36;;;;;;;4.53;3.73;;;21.00;99.90;;;;;;4993580;28;20849;-62
2023/07/09 05:46:04;;;;;;;6.03;3.70;;;21.10;99.90;;;;;;4993447;28;20190;-60
2023/07/09 05:48:30;;;;;;;12.60;4.30;;;21.30;99.90;;;;;;4992883;28;20198;-60
2023/07/09 05:50:55;;;;;;;4.57;3.60;;;21.40;99.90;;;;;;4992565;28;20422;-60
2023/07/09 05:53:22;;;;;;;4.27;3.80;;;21.50;99.90;;;;;;4992652;28;20502;-60
2023/07/09 05:55:47;;;;;;;7.47;3.90;;;21.70;99.90;;;;;;4993143;28;20267;-59
2023/07/09 05:58:13;;;;;;;6.20;4.23;;;21.90;99.90;;;;;;4993758;28;20505;-60
2023/07/09 06:00:41;;;;;;;8.23;3.90;;;22.00;99.90;;;;;;4993287;28;20301;-60
2023/07/09 06:03:07;;;;;;;5.47;4.10;;;22.20;99.90;;;;;;4993372;28;20538;-60
2023/07/09 06:05:33;;;;;;;5.90;3.90;;;22.30;99.90;;;;;;4992969;28;20899;-61
2023/07/09 06:07:59;;;;;;;9.80;3.77;;;22.50;99.90;;;;;;4993054;28;20422;-60
2023/07/09 06:10:25;;;;;;;4.17;3.67;;;22.60;99.90;;;;;;4993175;28;20414;-60
2023/07/09 06:12:51;;;;;;;5.03;4.13;;;22.80;99.90;;;;;;4993200;28;20191;-59
2023/07/09 06:15:16;;;;;;;3.90;3.60;;;23.00;99.90;;;;;;4993355;28;20958;-60
2023/07/09 06:17:42;;;;;;;6.60;4.13;;;23.20;99.90;;;;;;4992926;28;20184;-61
2023/07/09 06:20:08;;;;;;;4.60;3.70;;;23.30;99.90;;;;;;4992645;28;20640;-60
2023/07/09 06:22:34;;;;;;;4.93;4.20;;;23.50;99.90;;;;;;4992605;28;20675;-60
2023/07/09 06:25:00;;;;;;;5.20;3.73;;;23.60;99.90;;;;;;4993008;28;20424;-61
2023/07/09 06:27:26;;;;;;;6.07;4.40;;;23.70;99.90;;;;;;4992940;28;20194;-60
2023/07/09 06:29:51;;;;;;;5.73;4.60;;;23.60;99.90;;;;;;4992437;28;20422;-59
2023/07/09 06:32:17;;;;;;;5.50;4.10;;;23.60;99.90;;;;;;4993071;28;20245;-61
2023/07/09 06:34:43;;;;;;;8.23;4.60;;;23.70;99.90;;;;;;4993198;28;20209;-60
2023/07/09 06:37:08;;;;;;;5.50;4.13;;;23.80;99.90;;;;;;4993276;28;20550;-60
2023/07/09 06:39:34;;;;;;;4.47;3.80;;;24.00;99.90;;;;;;4992967;28;20572;-60
2023/07/09 06:41:59;;;;;;;4.70;3.90;;;24.20;99.90;;;;;;4992557;28;20205;-59
2023/07/09 06:44:27;;;;;;;10.53;4.60;;;24.30;99.90;;;;;;4992393;28;20184;-60
2023/07/09 06:46:53;;;;;;;5.40;4.10;;;24.60;99.90;;;;;;4992189;28;20250;-60
2023/07/09 06:49:18;;;;;;;4.30;3.90;;;24.70;99.90;;;;;;4992652;28;20412;-59
2023/07/09 06:51:44;;;;;;;8.80;4.47;;;24.90;99.90;;;;;;4992404;28;20203;-60
2023/07/09 06:54:12;;;;;;;5.63;4.27;;;25.00;99.90;;;;;;4992237;28;20247;-59
2023/07/09 06:56:38;;;;;;;9.57;4.80;;;25.10;99.90;;;;;;4992542;28;20439;-59
2023/07/09 06:59:04;;;;;;;4.47;4.03;;;25.30;99.90;;;;;;4992393;28;20912;-59
2023/07/09 07:01:30;;;;;;;5.67;4.17;;;25.50;99.90;;;;;;4992487;28;20204;-59
2023/07/09 07:03:55;;;;;;;4.53;4.07;;;25.70;99.90;;;;;;4990858;28;20895;-60
2023/07/09 07:06:21;;;;;;;4.37;3.97;;;25.80;99.90;;;;;;4992167;28;20181;-59
2023/07/09 07:08:46;;;;;;;6.60;4.50;;;25.90;99.90;;;;;;4991863;28;20304;-60
2023/07/09 07:11:12;;;;;;;5.60;4.13;;;26.10;99.90;;;;;;4992127;28;20246;-59
2023/07/09 07:13:39;;;;;;;12.20;4.40;;;26.30;99.90;;;;;;4992019;28;20217;-59
2023/07/09 07:16:10;;;;;;;5.00;4.20;;;26.40;99.90;;;;;;4991906;28;20188;-55
2023/07/09 07:18:36;;;;;;;5.20;4.47;;;26.50;99.90;;;;;;4992255;28;20416;-58
2023/07/09 07:21:02;;;;;;;5.97;4.10;;;26.70;99.90;;;;;;4991801;28;20522;-58
2023/07/09 07:23:28;;;;;;;4.80;4.13;;;27.10;99.90;;;;;;4992120;28;20443;-57
2023/07/09 07:25:54;;;;;;;6.03;4.20;;;27.30;99.90;;;;;;4991761;28;20428;-59
2023/07/09 07:28:20;;;;;;;5.23;4.57;;;27.40;99.90;;;;;;4991864;28;20419;-58
2023/07/09 07:30:46;;;;;;;4.90;3.97;;;27.40;99.90;;;;;;4991589;28;20424;-58
2023/07/09 07:33:14;;;;;;;6.83;4.33;;;27.40;99.90;;;;;;4992401;28;20279;-58
2023/07/09 07:35:39;;;;;;;4.73;3.80;;;27.40;99.90;;;;;;4991394;28;20201;-58
2023/07/09 07:38:05;;;;;;;4.83;4.00;;;27.40;99.90;;;;;;4992147;28;20481;-59
2023/07/09 07:40:30;;;;;;;9.47;4.53;;;27.50;99.90;;;;;;4991686;28;20637;-58
2023/07/09 07:42:56;;;;;;;4.93;4.30;;;27.70;99.90;;;;;;4991940;28;20207;-59
2023/07/09 07:45:22;;;;;;;5.20;4.60;;;28.10;99.90;;;;;;4991483;28;20559;-57
2023/07/09 07:47:47;;;;;;;5.20;4.30;;;28.30;99.90;;;;;;4991654;28;20208;-58
2023/07/09 07:50:13;;;;;;;5.90;4.30;;;28.50;99.90;;;;;;4991322;28;20180;-59
2023/07/09 07:52:39;;;;;;;5.90;4.73;;;28.60;99.90;;;;;;4991441;28;20281;-59
2023/07/09 07:55:06;;;;;;;7.53;4.27;;;28.70;99.90;;;;;;4991317;28;20236;-59
2023/07/09 07:57:32;;;;;;;5.00;4.47;;;28.80;99.90;;;;;;4991877;28;20185;-59
2023/07/09 07:59:57;;;;;;;4.73;4.33;;;28.90;99.90;;;;;;4991292;28;20485;-59
2023/07/09 08:02:24;;;;;;;5.33;4.73;;;29.10;99.90;;;;;;4991221;28;20243;-59
2023/07/09 08:04:50;;;;;;;21.60;5.27;;;29.20;99.90;;;;;;4991656;28;20653;-59
2023/07/09 08:07:18;;;;;;;6.00;5.13;;;29.30;99.90;;;;;;4991411;28;20423;-59
2023/07/09 08:09:44;;;;;;;6.73;5.07;;;29.30;99.90;;;;;;4991503;28;20418;-58
2023/07/09 08:12:12;;;;;;;6.30;4.80;;;29.40;99.90;;;;;;4991180;28;20966;-57
2023/07/09 08:14:39;;;;;;;5.37;4.80;;;29.70;99.90;;;;;;4991224;28;20452;-59
2023/07/09 08:17:05;;;;;;;11.77;5.30;;;30.00;99.90;;;;;;4991593;28;20425;-58
2023/07/09 08:19:32;;;;;;;5.90;4.70;;;30.00;99.90;;;;;;4991256;28;20418;-58
2023/07/09 08:21:58;;;;;;;6.70;4.37;;;30.10;99.90;;;;;;4991225;28;20459;-58
2023/07/09 08:24:23;;;;;;;5.57;5.07;;;30.20;99.90;;;;;;4990813;28;20435;-58
2023/07/09 08:26:49;;;;;;;5.03;4.53;;;30.40;99.90;;;;;;4991180;28;20246;-57
2023/07/09 08:29:15;;;;;;;5.07;4.57;;;30.70;99.90;;;;;;4991205;28;20636;-59
2023/07/09 08:31:41;;;;;;;5.27;4.77;;;30.80;99.90;;;;;;4991114;28;20506;-58
2023/07/09 08:34:07;;;;;;;10.63;4.93;;;31.00;99.90;;;;;;4990766;28;20209;-57
2023/07/09 08:36:33;;;;;;;4.97;4.57;;;31.40;99.90;;;;;;4990730;28;20938;-59
2023/07/09 08:39:02;;;;;;;7.97;4.80;;;31.60;99.90;;;;;;4991321;28;20416;-59
2023/07/09 08:41:39;;;;;;;6.93;4.80;;;31.80;99.90;;;;;;4991013;28;20208;-59
2023/07/09 08:44:14;;;;;;;7.30;5.40;;;31.80;99.90;;;;;;4991213;28;20457;-59
2023/07/09 08:47:02;;;;;;;5.20;4.70;;;31.90;99.90;;;;;;4991017;28;20418;-59
2023/07/09 08:49:59;;;;;;;5.80;5.30;;;32.20;99.90;;;;;;4990759;28;20419;-57
2023/07/09 08:52:27;;;;;;;5.60;5.10;;;32.50;99.90;;;;;;4990593;28;20956;-59
2023/07/09 08:54:55;;;;;;;5.90;5.40;;;32.70;99.90;;;;;;4990451;28;20464;-60
2023/07/09 08:57:38;;;;;;;6.03;4.70;;;32.70;99.90;;;;;;4990674;28;20467;-58
2023/07/09 09:00:28;;;;;;;6.07;4.83;;;32.70;99.90;;;;;;4990699;28;20945;-59
2023/07/09 09:03:21;;;;;;;5.47;4.67;;;32.60;99.90;;;;;;4990903;28;20421;-59
2023/07/09 09:05:49;;;;;;;8.73;5.20;;;32.60;99.90;;;;;;4997596;28;20863;-58
2023/07/09 09:08:33;;;;;;;5.27;4.80;;;32.90;99.90;;;;;;4990430;28;20448;-57
2023/07/09 09:11:08;;;;;;;5.40;4.90;;;33.30;99.90;;;;;;4990294;28;20958;-58
2023/07/09 09:13:38;;;;;;;5.70;5.20;;;33.60;99.90;;;;;;4990556;28;20430;-58
2023/07/09 09:16:11;;;;;;;4.53;4.17;;;33.60;99.90;;;;;;4990515;28;20950;-58
2023/07/09 09:18:42;;;;;;;5.67;5.17;;;33.60;99.90;;;;;;4990565;28;20438;-58
2023/07/09 09:21:33;;;;;;;5.23;4.73;;;33.70;99.90;;;;;;4990955;28;20518;-58
2023/07/09 09:24:34;;;;;;;8.43;5.07;;;33.70;99.90;;;;;;4997155;28;20475;-57
2023/07/09 09:27:00;;;;;;;11.97;4.83;;;33.80;99.90;;;;;;5024205;28;20515;-57
2023/07/09 09:29:26;;;;;;;5.17;4.77;;;33.60;99.90;;;;;;4994036;28;20495;-57
2023/07/09 09:31:55;;;;;;;6.20;5.53;;;33.70;99.90;;;;;;4993643;28;20666;-57
2023/07/09 09:34:27;;;;;;;7.60;4.87;;;33.70;99.90;;;;;;4993346;28;20421;-58
2023/07/09 09:36:52;;;;;;;5.40;4.80;;;33.70;99.90;;;;;;4993854;28;20415;-57
2023/07/09 09:39:18;;;;;;;5.80;4.90;;;33.60;99.90;;;;;;4993562;28;20498;-57
2023/07/09 09:41:45;;;;;;;5.93;5.20;;;33.70;99.90;;;;;;4993547;28;20200;-56
2023/07/09 09:44:25;;;;;;;5.53;5.03;;;33.80;99.90;;;;;;4993348;28;20594;-57
2023/07/09 09:46:51;;;;;;;7.83;4.80;;;34.00;99.90;;;;;;4993715;28;20447;-56
2023/07/09 09:49:16;;;;;;;6.70;5.40;;;34.10;99.90;;;;;;4993627;28;20452;-57
2023/07/09 09:51:45;;;;;;;5.93;5.33;;;34.10;99.90;;;;;;4993208;28;20625;-57
2023/07/09 09:54:19;;;;;;;5.60;5.03;;;33.90;99.90;;;;;;4993126;28;20335;-56
2023/07/09 09:56:44;;;;;;;6.10;5.00;;;34.20;99.90;;;;;;4993138;28;20424;-57
2023/07/09 09:59:24;;;;;;;6.20;5.07;;;34.40;99.90;;;;;;4993446;28;20416;-55
2023/07/09 10:02:01;;;;;;;5.30;4.80;;;34.50;99.90;;;;;;4993147;28;20200;-57
2023/07/09 10:04:27;;;;;;;6.60;4.93;;;34.60;99.90;;;;;;4993433;28;20415;-57
2023/07/09 10:07:05;;;;;;;5.50;4.87;;;34.70;99.90;;;;;;4993339;28;20458;-57
2023/07/09 10:09:54;;;;;;;6.10;5.50;;;34.90;99.90;;;;;;4993100;28;20404;-56
2023/07/09 10:12:38;;;;;;;5.77;5.17;;;35.00;99.90;;;;;;5000743;28;20448;-57
2023/07/09 10:15:31;;;;;;;6.03;5.40;;;35.10;99.90;;;;;;4992979;28;20864;-57
2023/07/09 10:18:30;;;;;;;5.20;4.70;;;35.30;99.90;;;;;;4992618;28;20416;-56
2023/07/09 10:21:10;;;;;;;6.80;5.23;;;35.60;99.90;;;;;;5005084;28;20815;-56
2023/07/09 10:23:53;;;;;;;6.30;5.10;;;36.00;99.90;;;;;;4992905;28;20417;-56
2023/07/09 10:26:43;;;;;;;5.87;5.20;;;35.80;99.90;;;;;;4993018;28;20415;-56
2023/07/09 10:29:35;;;;;;;5.13;4.70;;;35.90;99.90;;;;;;4992737;28;20418;-57
2023/07/09 10:32:14;;;;;;;5.60;5.10;;;35.90;99.90;;;;;;4992774;28;20496;-56
2023/07/09 10:34:42;;;;;;;6.80;5.57;;;36.10;99.90;;;;;;4992470;28;20403;-56
2023/07/09 10:37:26;;;;;;;5.70;5.17;;;36.10;99.90;;;;;;4992430;28;20478;-56
2023/07/09 10:39:57;;;;;;;8.00;5.17;;;36.20;99.90;;;;;;4992595;28;20416;-56
2023/07/09 10:42:41;;;;;;;5.37;4.87;;;36.40;99.90;;;;;;4992688;28;20460;-56
2023/07/09 10:45:12;;;;;;;7.43;5.50;;;36.60;99.90;;;;;;4992287;28;20430;-56
2023/07/09 10:47:44;;;;;;;5.27;4.80;;;36.60;99.90;;;;;;4992721;28;20483;-55
2023/07/09 10:50:17;;;;;;;5.53;5.10;;;36.80;99.90;;;;;;4992960;28;20409;-57
2023/07/09 10:52:46;;;;;;;12.60;5.20;;;36.90;99.90;;;;;;4992545;28;20379;-56
2023/07/09 10:55:30;;;;;;;9.03;5.57;;;37.10;99.90;;;;;;4991984;28;20931;-55
2023/07/09 10:58:11;;;;;;;7.00;5.13;;;37.10;99.90;;;;;;4992534;28;20539;-57
2023/07/09 11:00:39;;;;;;;8.40;5.57;;;37.10;99.90;;;;;;4992513;28;20401;-56
2023/07/09 11:03:44;;;;;;;6.00;5.10;;;37.10;99.90;;;;;;4992398;28;20870;-56
2023/07/09 11:06:20;;;;;;;5.50;5.00;;;37.10;99.90;;;;;;5051863;28;20444;-55
2023/07/09 11:08:51;;;;;;;6.27;5.50;;;37.10;99.90;;;;;;5052106;28;20399;-55
2023/07/09 11:11:36;;;;;;;8.87;6.53;;;37.10;99.90;;;;;;5017850;28;20439;-56
2023/07/09 11:14:10;;;;;;;13.27;8.50;;;37.30;99.90;;;;;;4992252;28;20412;-55
2023/07/09 11:16:40;;;;;;;10.93;8.00;;;37.40;99.90;;;;;;4991998;28;20519;-54
2023/07/09 11:19:13;;;;;;;7.10;5.77;;;37.30;99.90;;;;;;4992570;28;20432;-56
2023/07/09 11:21:58;;;;;;;5.97;5.37;;;37.40;99.90;;;;;;4991875;28;20536;-55
2023/07/09 11:24:33;;;;;;;7.30;5.70;;;37.60;99.90;;;;;;4991772;28;20495;-55
2023/07/09 11:27:00;;;;;;;6.60;6.03;;;37.60;99.90;;;;;;4991547;28;20420;-56
2023/07/09 11:29:28;;;;;;;6.40;4.90;;;37.70;99.90;;;;;;4992049;28;20412;-57
2023/07/09 11:31:53;;;;;;;8.03;5.47;;;37.70;99.90;;;;;;4991364;28;20862;-57
2023/07/09 11:34:26;;;;;;;6.17;5.23;;;37.80;99.90;;;;;;4992221;28;20491;-56
2023/07/09 11:36:55;;;;;;;6.40;5.80;;;37.90;99.90;;;;;;4991257;28;20192;-54
2023/07/09 11:39:26;;;;;;;6.50;5.10;;;38.00;99.90;;;;;;4990979;28;20503;-56
2023/07/09 11:41:52;;;;;;;6.37;5.37;;;38.10;99.90;;;;;;4991524;28;20509;-56
2023/07/09 11:44:21;;;;;;;10.90;5.53;;;38.00;99.90;;;;;;4991489;28;20452;-56
2023/07/09 11:47:11;;;;;;;6.17;5.67;;;37.80;99.90;;;;;;4991376;28;20200;-57
2023/07/09 11:50:06;;;;;;;7.40;5.70;;;37.80;99.90;;;;;;4990625;28;20531;-56
2023/07/09 11:52:58;;;;;;;7.47;6.17;;;38.00;99.90;;;;;;4991199;28;20896;-57
2023/07/09 11:55:45;;;;;;;6.57;5.93;;;38.20;99.90;;;;;;4991271;28;20474;-57
2023/07/09 11:58:14;;;;;;;5.90;5.37;;;38.10;99.90;;;;;;4991292;28;20811;-57
2023/07/09 12:00:49;;;;;;;6.43;5.27;;;38.10;99.90;;;;;;4991536;28;20415;-56
2023/07/09 12:03:21;;;;;;;5.60;5.10;;;38.10;99.90;;;;;;4991674;28;20412;-57
2023/07/09 12:06:00;;;;;;;6.77;5.10;;;37.70;99.90;;;;;;4991117;28;20734;-56
2023/07/09 12:08:35;;;;;;;6.23;4.80;;;37.50;99.90;;;;;;4991380;28;20416;-57
2023/07/09 12:11:01;;;;;;;5.90;5.13;;;37.70;99.90;;;;;;4991125;28;20529;-56
2023/07/09 12:13:27;;;;;;;5.97;5.13;;;37.30;99.90;;;;;;4991194;28;20420;-56
2023/07/09 12:15:52;;;;;;;5.30;4.80;;;37.50;99.90;;;;;;4991225;28;20416;-57
2023/07/09 12:18:18;;;;;;;6.20;5.60;;;37.60;99.90;;;;;;4991118;28;20223;-57
2023/07/09 12:20:49;;;;;;;5.77;5.20;;;37.80;99.90;;;;;;4991341;28;20185;-58
2023/07/09 12:23:32;;;;;;;6.10;5.60;;;37.70;99.90;;;;;;4991787;28;20184;-58
2023/07/09 12:26:02;;;;;;;10.83;5.67;;;37.70;99.90;;;;;;4990935;28;20442;-56
2023/07/09 12:28:29;;;;;;;6.97;5.73;;;37.50;99.90;;;;;;4991117;28;20432;-55
2023/07/09 12:30:54;;;;;;;5.80;5.20;;;37.10;99.90;;;;;;4990728;28;20424;-56
2023/07/09 12:33:25;;;;;;;6.90;5.50;;;37.10;99.90;;;;;;4991129;28;20470;-56
2023/07/09 12:36:03;;;;;;;6.00;4.93;;;36.80;99.90;;;;;;4991126;28;20203;-57
2023/07/09 12:38:38;;;;;;;6.70;5.73;;;36.80;99.90;;;;;;4991026;28;20775;-56
2023/07/09 12:41:04;;;;;;;8.40;5.77;;;36.60;99.90;;;;;;4990942;28;20480;-57
2023/07/09 12:43:31;;;;;;;6.00;5.50;;;36.80;99.90;;;;;;4990819;28;20412;-57
2023/07/09 12:45:59;;;;;;;6.07;4.90;;;37.00;99.90;;;;;;4990466;28;20931;-57
2023/07/09 12:48:27;;;;;;;6.43;5.80;;;37.10;99.90;;;;;;4991063;28;20470;-58
2023/07/09 12:50:57;;;;;;;13.00;5.97;;;37.50;99.90;;;;;;4990445;28;20445;-56
2023/07/09 12:53:27;;;;;;;6.80;5.07;;;37.80;99.90;;;;;;4990772;28;20504;-57
2023/07/09 12:55:58;;;;;;;7.80;5.50;;;38.00;99.90;;;;;;4990842;28;20830;-58
2023/07/09 12:58:29;;;;;;;9.57;5.33;;;37.80;99.90;;;;;;4990333;28;20441;-57
2023/07/09 13:00:57;;;;;;;7.97;5.73;;;37.40;99.90;;;;;;4992135;28;20487;-58
2023/07/09 13:03:31;;;;;;;6.53;5.13;;;37.20;99.90;;;;;;4993946;28;20442;-58
2023/07/09 13:06:03;;;;;;;6.20;5.60;;;37.40;99.90;;;;;;4993762;28;20439;-57
2023/07/09 13:08:32;;;;;;;6.53;5.57;;;37.50;99.90;;;;;;4994143;28;20477;-58